Time;durP1;ratioP1;P1;durP2;ratioP2;P2;SDS_P1;SDS_P2;PMS_P1;PMS_P2;Temp;Humidity;BMP_temperature;BMP_pressure;BME280_temperature;BME280_humidity;BME280_pressure;Samples;Min_cycle;Max_cycle;Signal;HPM_P1;HPM_P2
2023/04/18 00:00:11;;;;;;;19.30;12.93;;;8.80;99.90;;;;;;5031689;28;20190;-80
2023/04/18 00:02:38;;;;;;;17.03;12.67;;;8.70;99.90;;;;;;5032154;28;20293;-81
2023/04/18 00:05:06;;;;;;;18.73;12.50;;;8.70;99.90;;;;;;5031576;28;20223;-79
2023/04/18 00:07:35;;;;;;;17.43;12.87;;;8.70;99.90;;;;;;5032234;28;20609;-81
2023/04/18 00:10:02;;;;;;;17.70;11.50;;;8.60;99.90;;;;;;5031825;28;20242;-80
2023/04/18 00:12:29;;;;;;;16.33;11.20;;;8.60;99.90;;;;;;5015057;28;20226;-82
2023/04/18 00:14:57;;;;;;;14.87;11.03;;;8.70;99.90;;;;;;5012520;28;20195;-80
2023/04/18 00:17:25;;;;;;;13.57;10.27;;;8.60;99.90;;;;;;5012402;28;20203;-82
2023/04/18 00:19:52;;;;;;;12.53;10.10;;;8.60;99.90;;;;;;5012443;28;20218;-82
2023/04/18 00:22:21;;;;;;;13.67;10.93;;;8.60;99.90;;;;;;5012291;28;20258;-80
2023/04/18 00:24:49;;;;;;;14.53;10.50;;;8.60;99.90;;;;;;5017101;28;20223;-80
2023/04/18 00:27:17;;;;;;;15.13;10.57;;;8.60;99.90;;;;;;5031953;28;20237;-81
2023/04/18 00:29:44;;;;;;;11.90;9.13;;;8.50;99.90;;;;;;5033503;28;20274;-80
2023/04/18 00:32:11;;;;;;;12.07;9.50;;;8.50;99.90;;;;;;5027951;28;20238;-80
2023/04/18 00:34:39;;;;;;;13.77;9.77;;;8.50;99.90;;;;;;5015714;28;20259;-80
2023/04/18 00:37:06;;;;;;;13.50;9.30;;;8.50;99.90;;;;;;5015916;28;20227;-81
2023/04/18 00:39:35;;;;;;;11.43;8.63;;;8.50;99.90;;;;;;5016093;28;20257;-80
2023/04/18 00:42:03;;;;;;;10.23;8.60;;;8.60;99.90;;;;;;5016041;28;20258;-82
2023/04/18 00:44:31;;;;;;;13.07;8.57;;;8.60;99.90;;;;;;5014821;28;20243;-79
2023/04/18 00:46:58;;;;;;;10.07;8.53;;;8.50;99.90;;;;;;5015276;28;20294;-81
2023/04/18 00:49:26;;;;;;;10.57;8.53;;;8.60;99.90;;;;;;5032223;28;20570;-81
2023/04/18 00:51:54;;;;;;;10.67;8.30;;;8.50;99.90;;;;;;5035424;28;20260;-81
2023/04/18 00:54:22;;;;;;;10.13;8.10;;;8.50;99.90;;;;;;5034058;28;20202;-83
2023/04/18 00:56:49;;;;;;;13.43;9.37;;;8.50;99.90;;;;;;5035112;28;20281;-81
2023/04/18 00:59:17;;;;;;;12.63;8.77;;;8.40;99.90;;;;;;5034510;28;20203;-81
2023/04/18 01:01:44;;;;;;;14.77;9.23;;;8.40;99.90;;;;;;5020995;28;20207;-80
2023/04/18 01:04:11;;;;;;;11.20;8.40;;;8.30;99.90;;;;;;5015388;28;20654;-82
2023/04/18 01:06:38;;;;;;;14.47;8.37;;;8.30;99.90;;;;;;5014458;28;20278;-82
2023/04/18 01:09:05;;;;;;;10.17;7.93;;;8.30;99.90;;;;;;5015001;28;20282;-81
2023/04/18 01:11:32;;;;;;;14.37;9.20;;;8.30;99.90;;;;;;5019778;28;20787;-78
2023/04/18 01:14:00;;;;;;;10.13;8.20;;;8.20;99.90;;;;;;5017119;28;20239;-81
2023/04/18 01:16:31;;;;;;;10.67;8.70;;;8.10;99.90;;;;;;5014799;28;20306;-82
2023/04/18 01:18:58;;;;;;;14.87;9.20;;;8.10;99.90;;;;;;5014603;28;20302;-80
2023/04/18 01:21:25;;;;;;;13.83;9.60;;;8.10;99.90;;;;;;5015265;28;20199;-81
2023/04/18 01:23:53;;;;;;;11.87;8.93;;;8.10;99.90;;;;;;5015226;28;20253;-82
2023/04/18 01:26:21;;;;;;;12.27;8.83;;;8.10;99.90;;;;;;5014754;28;20907;-82
2023/04/18 01:28:48;;;;;;;14.47;9.07;;;8.10;99.90;;;;;;5034397;28;20242;-81
2023/04/18 01:31:15;;;;;;;12.50;8.33;;;8.10;99.90;;;;;;5035089;28;20289;-81
2023/04/18 01:33:42;;;;;;;12.67;9.17;;;8.00;99.90;;;;;;5022199;28;20211;-81
2023/04/18 01:36:09;;;;;;;11.90;8.47;;;8.00;99.90;;;;;;5014465;28;20608;-80
2023/04/18 01:38:36;;;;;;;11.20;8.43;;;7.90;99.90;;;;;;5014004;28;20212;-82
2023/04/18 01:41:03;;;;;;;13.20;8.60;;;7.90;99.90;;;;;;5013691;28;20631;-80
2023/04/18 01:43:31;;;;;;;11.17;9.07;;;7.80;99.90;;;;;;5014597;28;20290;-80
2023/04/18 01:45:58;;;;;;;13.63;9.37;;;7.80;99.90;;;;;;5033739;28;20646;-78
2023/04/18 01:48:25;;;;;;;12.57;9.77;;;7.80;99.90;;;;;;5034137;28;20206;-80
2023/04/18 01:50:52;;;;;;;12.77;9.40;;;7.80;99.90;;;;;;5025333;28;20223;-80
2023/04/18 01:53:19;;;;;;;11.67;8.57;;;7.70;99.90;;;;;;5013847;28;20207;-78
2023/04/18 01:55:45;;;;;;;12.30;9.13;;;7.70;99.90;;;;;;5013386;28;20269;-80
2023/04/18 01:58:14;;;;;;;11.80;9.20;;;7.70;99.90;;;;;;5014495;28;20295;-78
2023/04/18 02:00:42;;;;;;;15.20;9.47;;;7.60;99.90;;;;;;5013458;28;20195;-80
2023/04/18 02:03:09;;;;;;;11.50;9.97;;;7.60;99.90;;;;;;5013055;28;20208;-79
2023/04/18 02:05:37;;;;;;;15.00;9.10;;;7.60;99.90;;;;;;5013477;28;20226;-80
2023/04/18 02:08:04;;;;;;;12.97;9.77;;;7.60;99.90;;;;;;5013976;28;20203;-81
2023/04/18 02:10:31;;;;;;;10.90;9.43;;;7.60;99.90;;;;;;5013857;28;20611;-81
2023/04/18 02:12:58;;;;;;;11.03;8.90;;;7.50;99.90;;;;;;5014058;28;20794;-80
2023/04/18 02:15:25;;;;;;;11.33;9.27;;;7.50;99.90;;;;;;5013489;28;20299;-81
2023/04/18 02:17:53;;;;;;;14.30;10.77;;;7.60;99.90;;;;;;5014555;28;20203;-79
2023/04/18 02:20:20;;;;;;;13.87;9.87;;;7.50;99.90;;;;;;5013821;28;20202;-79
2023/04/18 02:22:47;;;;;;;14.10;10.33;;;7.50;99.90;;;;;;5013171;28;20291;-78
2023/04/18 02:25:14;;;;;;;11.13;9.57;;;7.50;99.90;;;;;;5013736;28;20315;-80
2023/04/18 02:27:41;;;;;;;14.13;9.87;;;7.50;99.90;;;;;;5013931;28;20238;-82
2023/04/18 02:30:09;;;;;;;17.60;11.10;;;7.40;99.90;;;;;;5013563;28;20290;-82
2023/04/18 02:32:36;;;;;;;12.50;9.97;;;7.30;99.90;;;;;;5013840;28;20199;-80
2023/04/18 02:35:04;;;;;;;13.77;10.83;;;7.40;99.90;;;;;;5013788;28;20207;-82
2023/04/18 02:37:31;;;;;;;13.07;10.53;;;7.50;99.90;;;;;;5013342;28;20254;-81
2023/04/18 02:39:58;;;;;;;15.73;10.73;;;7.40;99.90;;;;;;5013609;28;20199;-80
2023/04/18 02:42:25;;;;;;;15.87;11.53;;;7.50;99.90;;;;;;5013716;28;20618;-82
2023/04/18 02:44:52;;;;;;;17.97;11.80;;;7.50;99.90;;;;;;5013579;28;20242;-81
2023/04/18 02:47:20;;;;;;;14.90;12.50;;;7.50;99.90;;;;;;5023548;28;20285;-79
2023/04/18 02:49:47;;;;;;;15.17;11.60;;;7.50;99.90;;;;;;5032801;28;20202;-79
2023/04/18 02:52:15;;;;;;;16.00;11.33;;;7.50;99.90;;;;;;5028844;28;20242;-80
2023/04/18 02:54:42;;;;;;;16.00;11.40;;;7.30;99.90;;;;;;5013247;28;20207;-80
2023/04/18 02:57:09;;;;;;;17.00;11.90;;;7.30;99.90;;;;;;5013194;28;20203;-79
2023/04/18 02:59:36;;;;;;;14.67;11.57;;;7.30;99.90;;;;;;5012902;28;20222;-79
2023/04/18 03:02:03;;;;;;;17.03;12.93;;;7.30;99.90;;;;;;5012792;28;20294;-81
2023/04/18 03:04:30;;;;;;;15.57;12.73;;;7.30;99.90;;;;;;5012817;28;20278;-80
2023/04/18 03:06:58;;;;;;;16.00;12.20;;;7.30;99.90;;;;;;5013434;28;20296;-80
2023/04/18 03:09:27;;;;;;;15.17;12.20;;;7.30;99.90;;;;;;5013123;28;20204;-80
2023/04/18 03:11:54;;;;;;;16.20;13.20;;;7.20;99.90;;;;;;5012618;28;20238;-79
2023/04/18 03:14:20;;;;;;;14.93;12.23;;;7.30;99.90;;;;;;5032316;28;20546;-80
2023/04/18 03:16:47;;;;;;;14.63;11.93;;;7.30;99.90;;;;;;5028330;28;20512;-80
2023/04/18 03:19:14;;;;;;;15.50;12.17;;;7.30;99.90;;;;;;5012337;28;20222;-78
2023/04/18 03:21:41;;;;;;;17.43;13.27;;;7.30;99.90;;;;;;5014552;28;20238;-80
2023/04/18 03:24:08;;;;;;;15.47;11.83;;;7.30;99.90;;;;;;5032339;28;20286;-80
2023/04/18 03:26:36;;;;;;;15.63;12.40;;;7.30;99.90;;;;;;5019462;28;20314;-81
2023/04/18 03:29:03;;;;;;;17.30;12.60;;;7.20;99.90;;;;;;5012390;28;20694;-80
2023/04/18 03:31:32;;;;;;;15.53;12.17;;;7.20;99.90;;;;;;5032511;28;20301;-80
2023/04/18 03:33:59;;;;;;;15.40;12.43;;;7.20;99.90;;;;;;5026720;28;20218;-80
2023/04/18 03:36:27;;;;;;;18.30;12.80;;;7.20;99.90;;;;;;5012766;28;20302;-80
2023/04/18 03:38:54;;;;;;;19.67;12.37;;;7.20;99.90;;;;;;5012790;28;20556;-78
2023/04/18 03:41:22;;;;;;;19.00;12.47;;;7.20;99.90;;;;;;5012224;28;20191;-79
2023/04/18 03:43:50;;;;;;;16.90;12.23;;;7.20;99.90;;;;;;5012189;28;20199;-81
2023/04/18 03:46:17;;;;;;;16.57;11.40;;;7.10;99.90;;;;;;5012355;28;20227;-79
2023/04/18 03:48:44;;;;;;;14.57;12.03;;;7.10;99.90;;;;;;5010954;28;20625;-79
2023/04/18 03:51:11;;;;;;;16.90;12.00;;;7.10;99.90;;;;;;5011802;28;20203;-80
2023/04/18 03:53:38;;;;;;;15.00;11.47;;;7.10;99.90;;;;;;5011608;28;20229;-79
2023/04/18 03:56:05;;;;;;;14.17;11.57;;;7.10;99.90;;;;;;5011624;28;20729;-80
2023/04/18 03:58:32;;;;;;;13.20;11.27;;;7.10;99.90;;;;;;5011700;28;20214;-79
2023/04/18 04:01:00;;;;;;;14.67;11.07;;;7.10;99.90;;;;;;5011956;28;20199;-78
2023/04/18 04:03:27;;;;;;;13.53;11.13;;;7.10;99.90;;;;;;5012160;28;20499;-79
2023/04/18 04:05:55;;;;;;;14.57;11.27;;;7.10;99.90;;;;;;5015453;28;20315;-79
2023/04/18 04:08:22;;;;;;;17.83;13.07;;;7.10;99.90;;;;;;5015086;28;20230;-79
2023/04/18 04:10:50;;;;;;;14.90;11.67;;;7.10;99.90;;;;;;5015719;28;20219;-79
2023/04/18 04:13:17;;;;;;;14.50;11.07;;;7.10;99.90;;;;;;5015731;28;20321;-79
2023/04/18 04:15:44;;;;;;;14.93;11.43;;;7.10;99.90;;;;;;5015171;28;20191;-78
2023/04/18 04:18:12;;;;;;;14.70;11.63;;;7.10;99.90;;;;;;5016028;28;20635;-78
2023/04/18 04:20:39;;;;;;;16.33;12.43;;;7.10;99.90;;;;;;5015775;28;20234;-79
2023/04/18 04:23:06;;;;;;;14.10;10.77;;;7.00;99.90;;;;;;5014991;28;20282;-79
2023/04/18 04:25:33;;;;;;;14.83;11.43;;;7.00;99.90;;;;;;5015219;28;20698;-78
2023/04/18 04:28:01;;;;;;;14.70;11.23;;;7.00;99.90;;;;;;5015542;28;20230;-77
2023/04/18 04:30:28;;;;;;;15.17;11.23;;;7.10;99.90;;;;;;5014676;28;20215;-79
2023/04/18 04:32:55;;;;;;;15.00;11.90;;;7.10;99.90;;;;;;5015453;28;20208;-78
2023/04/18 04:35:23;;;;;;;17.53;12.43;;;7.10;99.90;;;;;;5015634;28;20234;-78
2023/04/18 04:37:51;;;;;;;14.83;11.50;;;7.10;99.90;;;;;;5014655;28;20330;-80
2023/04/18 04:40:18;;;;;;;17.97;12.67;;;7.10;99.90;;;;;;5014984;28;20222;-78
2023/04/18 04:42:47;;;;;;;15.23;11.43;;;7.10;99.90;;;;;;5016025;28;20302;-78
2023/04/18 04:45:15;;;;;;;15.53;11.83;;;7.10;99.90;;;;;;5014327;28;20490;-78
2023/04/18 04:47:41;;;;;;;19.43;11.97;;;7.10;99.90;;;;;;5015499;28;20210;-78
2023/04/18 04:50:13;;;;;;;16.10;11.50;;;7.10;99.90;;;;;;5014610;28;20203;-78
2023/04/18 04:52:41;;;;;;;16.27;12.20;;;7.10;99.90;;;;;;5033841;28;20657;-79
2023/04/18 04:55:08;;;;;;;16.60;12.17;;;7.10;99.90;;;;;;5034454;28;20208;-78
2023/04/18 04:57:36;;;;;;;17.13;12.83;;;7.10;99.90;;;;;;5034103;28;20191;-78
2023/04/18 05:00:03;;;;;;;16.43;12.30;;;7.10;99.90;;;;;;5032069;28;20285;-78
2023/04/18 05:02:30;;;;;;;17.63;12.70;;;7.00;99.90;;;;;;5014473;28;20306;-80
2023/04/18 05:04:57;;;;;;;17.63;13.27;;;7.00;99.90;;;;;;5014175;28;20198;-78
2023/04/18 05:07:24;;;;;;;17.60;13.50;;;7.00;99.90;;;;;;5014628;28;20590;-78
2023/04/18 05:09:53;;;;;;;17.07;12.33;;;7.00;99.90;;;;;;5014743;28;20290;-78
2023/04/18 05:12:20;;;;;;;17.27;12.77;;;7.00;99.90;;;;;;5013965;28;20576;-78
2023/04/18 05:14:47;;;;;;;16.33;12.00;;;7.00;99.90;;;;;;5014246;28;20235;-78
2023/04/18 05:17:13;;;;;;;18.47;13.17;;;7.00;99.90;;;;;;5014431;28;20210;-78
2023/04/18 05:19:42;;;;;;;19.13;13.37;;;7.10;99.90;;;;;;5013546;28;20210;-78
2023/04/18 05:22:09;;;;;;;16.47;12.13;;;7.10;99.90;;;;;;5014444;28;20585;-77
2023/04/18 05:24:36;;;;;;;17.07;13.23;;;7.10;99.90;;;;;;5014465;28;20563;-75
2023/04/18 05:27:05;;;;;;;15.93;12.03;;;7.10;99.90;;;;;;5013655;28;20239;-78
2023/04/18 05:29:32;;;;;;;18.20;12.50;;;7.10;99.90;;;;;;5014541;28;20258;-77
2023/04/18 05:31:58;;;;;;;15.47;11.47;;;7.10;99.90;;;;;;5013896;28;20202;-77
2023/04/18 05:34:25;;;;;;;17.03;12.20;;;7.10;99.90;;;;;;5013071;28;20608;-79
2023/04/18 05:36:52;;;;;;;16.37;12.73;;;7.10;99.90;;;;;;5014226;28;20246;-78
2023/04/18 05:39:19;;;;;;;15.47;12.43;;;7.10;99.90;;;;;;5013514;28;20265;-78
2023/04/18 05:41:46;;;;;;;15.93;11.90;;;7.20;99.90;;;;;;5014218;28;20203;-77
2023/04/18 05:44:16;;;;;;;16.67;12.77;;;7.10;99.90;;;;;;5014062;28;20227;-79
2023/04/18 05:46:43;;;;;;;17.23;13.27;;;7.20;99.90;;;;;;5013389;28;20211;-80
2023/04/18 05:49:10;;;;;;;16.73;11.93;;;7.20;99.90;;;;;;5013813;28;20286;-77
2023/04/18 05:51:38;;;;;;;17.97;12.60;;;7.10;99.90;;;;;;5014455;28;20498;-80
2023/04/18 05:54:05;;;;;;;15.03;11.30;;;7.10;99.90;;;;;;5013209;28;20664;-79
2023/04/18 05:56:31;;;;;;;17.30;11.50;;;7.20;99.90;;;;;;5013747;28;20206;-80
2023/04/18 05:58:58;;;;;;;13.77;11.10;;;7.20;99.90;;;;;;5019512;28;20277;-79
2023/04/18 06:01:27;;;;;;;15.27;12.00;;;7.30;99.90;;;;;;5033056;28;20199;-82
2023/04/18 06:03:54;;;;;;;14.40;10.60;;;7.30;99.90;;;;;;5034036;28;20203;-79
2023/04/18 06:06:21;;;;;;;13.53;11.10;;;7.30;99.90;;;;;;5020161;28;20309;-79
2023/04/18 06:08:48;;;;;;;15.30;10.63;;;7.40;99.90;;;;;;5013053;28;20290;-78
2023/04/18 06:11:15;;;;;;;15.37;11.80;;;7.40;99.90;;;;;;5013318;28;20290;-78
2023/04/18 06:13:43;;;;;;;14.30;10.73;;;7.40;99.90;;;;;;5013416;28;20262;-77
2023/04/18 06:16:10;;;;;;;14.60;10.87;;;7.50;99.90;;;;;;5012736;28;20266;-79
2023/04/18 06:18:38;;;;;;;12.87;9.80;;;7.50;99.90;;;;;;5013310;28;20302;-78
2023/04/18 06:21:05;;;;;;;17.57;13.40;;;7.50;99.90;;;;;;5013488;28;20199;-77
2023/04/18 06:23:32;;;;;;;13.60;9.67;;;7.60;99.90;;;;;;5024883;28;20621;-78
2023/04/18 06:25:59;;;;;;;16.63;9.57;;;7.60;99.90;;;;;;5033387;28;20294;-78
2023/04/18 06:28:26;;;;;;;11.23;9.77;;;7.70;99.90;;;;;;5030594;28;20224;-78
2023/04/18 06:30:53;;;;;;;14.40;10.60;;;7.70;99.90;;;;;;5033059;28;20249;-78
2023/04/18 06:33:20;;;;;;;13.10;10.03;;;7.80;99.90;;;;;;5015383;28;20207;-78
2023/04/18 06:35:48;;;;;;;11.23;9.03;;;7.90;99.90;;;;;;5012939;28;20604;-78
2023/04/18 06:38:15;;;;;;;11.30;9.10;;;8.00;99.90;;;;;;5012765;28;20231;-78
2023/04/18 06:40:42;;;;;;;12.33;9.37;;;8.00;99.90;;;;;;5012879;28;20215;-80
2023/04/18 06:43:09;;;;;;;14.73;9.27;;;8.10;99.90;;;;;;5012603;28;20804;-80
2023/04/18 06:45:36;;;;;;;11.53;8.57;;;8.20;99.90;;;;;;5013149;28;20282;-78
2023/04/18 06:48:03;;;;;;;10.67;9.17;;;8.20;99.90;;;;;;5016988;28;20308;-77
2023/04/18 06:50:30;;;;;;;12.17;8.30;;;8.20;99.90;;;;;;5032647;28;20195;-78
2023/04/18 06:52:58;;;;;;;12.03;8.10;;;8.20;99.90;;;;;;5032779;28;20265;-77
2023/04/18 06:55:25;;;;;;;12.30;8.43;;;8.20;99.90;;;;;;5019792;28;20207;-77
2023/04/18 06:57:53;;;;;;;13.53;8.50;;;8.20;99.90;;;;;;5012723;28;20237;-79
2023/04/18 07:00:20;;;;;;;13.47;8.70;;;8.30;99.90;;;;;;5018430;28;20297;-78
2023/04/18 07:02:48;;;;;;;12.30;8.87;;;8.30;99.90;;;;;;5018832;28;20278;-78
2023/04/18 07:05:15;;;;;;;11.97;8.67;;;8.40;99.90;;;;;;4965351;28;20206;-78
2023/04/18 07:07:41;;;;;;;11.23;8.13;;;8.50;99.90;;;;;;5031989;28;20242;-79
2023/04/18 07:10:11;;;;;;;11.23;8.00;;;8.60;99.90;;;;;;5028287;28;20281;-81
2023/04/18 07:12:38;;;;;;;14.13;8.20;;;8.70;99.90;;;;;;5031209;28;20213;-80
2023/04/18 07:15:05;;;;;;;11.97;8.20;;;8.70;99.90;;;;;;5030145;28;20213;-78
2023/04/18 07:17:32;;;;;;;13.97;9.27;;;8.80;99.90;;;;;;5030713;28;20602;-81
2023/04/18 07:19:59;;;;;;;10.27;8.00;;;8.90;99.90;;;;;;5030456;28;20282;-78
2023/04/18 07:22:26;;;;;;;11.20;7.60;;;8.90;99.90;;;;;;5031528;28;20372;-78
2023/04/18 07:24:53;;;;;;;10.27;7.73;;;9.00;99.90;;;;;;5031394;28;20198;-79
2023/04/18 07:27:21;;;;;;;9.90;7.87;;;9.10;99.90;;;;;;5031703;28;20317;-77
2023/04/18 07:29:48;;;;;;;10.10;8.33;;;9.10;99.90;;;;;;5015057;28;20298;-79
2023/04/18 07:32:15;;;;;;;9.97;7.53;;;9.20;99.90;;;;;;5011834;28;20494;-80
2023/04/18 07:34:42;;;;;;;12.53;8.30;;;9.10;99.90;;;;;;5025251;28;20197;-80
2023/04/18 07:37:09;;;;;;;12.27;8.80;;;9.10;99.90;;;;;;5042334;28;20230;-81
2023/04/18 07:39:36;;;;;;;8.30;7.43;;;9.00;99.90;;;;;;5031053;28;20217;-78
2023/04/18 07:42:03;;;;;;;10.13;7.77;;;8.90;99.90;;;;;;5034445;28;20284;-79
2023/04/18 07:44:34;;;;;;;12.80;8.57;;;8.90;99.90;;;;;;5036083;28;20201;-79
2023/04/18 07:47:01;;;;;;;9.50;7.70;;;8.90;99.90;;;;;;5030165;28;20209;-78
2023/04/18 07:49:28;;;;;;;8.40;6.97;;;9.00;99.90;;;;;;5047136;28;20211;-79
2023/04/18 07:51:56;;;;;;;9.87;7.27;;;9.10;99.90;;;;;;5027381;28;20501;-80
2023/04/18 07:54:22;;;;;;;10.53;7.83;;;9.10;99.90;;;;;;5039166;28;20209;-80
2023/04/18 07:56:49;;;;;;;10.40;7.17;;;9.10;99.90;;;;;;5034313;28;20190;-79
2023/04/18 07:59:16;;;;;;;8.70;7.40;;;9.20;99.90;;;;;;5038397;28;20202;-78
2023/04/18 08:01:44;;;;;;;10.87;7.30;;;9.30;99.90;;;;;;5027365;28;20293;-81
2023/04/18 08:04:11;;;;;;;8.53;6.77;;;9.30;99.90;;;;;;5046357;28;20298;-80
2023/04/18 08:06:39;;;;;;;10.60;7.73;;;9.40;99.90;;;;;;5040667;28;20230;-80
2023/04/18 08:09:07;;;;;;;8.07;7.00;;;9.40;99.90;;;;;;5018724;28;20205;-79
2023/04/18 08:11:35;;;;;;;9.73;7.47;;;9.30;99.90;;;;;;5043448;28;20557;-78
2023/04/18 08:14:02;;;;;;;8.37;7.23;;;9.40;99.90;;;;;;5037656;28;20292;-81
2023/04/18 08:16:29;;;;;;;10.23;7.23;;;9.40;99.90;;;;;;5025124;28;20253;-79
2023/04/18 08:18:57;;;;;;;9.10;7.77;;;9.50;99.90;;;;;;5039863;28;20541;-80
2023/04/18 08:21:25;;;;;;;9.70;7.87;;;9.50;99.90;;;;;;5041088;28;20298;-79
2023/04/18 08:23:52;;;;;;;9.07;7.63;;;9.50;99.90;;;;;;5024416;28;20221;-81
2023/04/18 08:26:20;;;;;;;11.83;7.63;;;9.50;99.90;;;;;;5020805;28;20214;-81
2023/04/18 08:28:48;;;;;;;8.60;7.03;;;9.60;99.90;;;;;;5031660;28;20517;-81
2023/04/18 08:31:15;;;;;;;10.57;7.03;;;9.60;99.90;;;;;;5033860;28;20514;-80
2023/04/18 08:33:42;;;;;;;9.60;7.57;;;9.70;99.90;;;;;;5028505;28;20242;-78
2023/04/18 08:36:12;;;;;;;8.70;7.00;;;9.80;99.90;;;;;;5013557;28;20210;-79
2023/04/18 08:38:39;;;;;;;8.70;6.77;;;10.30;99.90;;;;;;5014938;28;20230;-79
2023/04/18 08:41:05;;;;;;;9.53;6.90;;;10.60;99.90;;;;;;5014646;28;20286;-78
2023/04/18 08:43:32;;;;;;;7.63;6.07;;;11.00;99.90;;;;;;5013240;28;20218;-80
2023/04/18 08:46:00;;;;;;;8.27;6.90;;;11.40;99.90;;;;;;5014607;28;20234;-79
2023/04/18 08:48:27;;;;;;;8.00;6.20;;;11.50;99.90;;;;;;5020071;28;20537;-80
2023/04/18 08:50:57;;;;;;;6.77;5.87;;;11.40;99.90;;;;;;5033114;28;20206;-81
2023/04/18 08:53:26;;;;;;;8.13;6.03;;;11.40;99.90;;;;;;5033949;28;20912;-80
2023/04/18 08:55:55;;;;;;;8.00;5.83;;;11.40;24.30;;;;;;5021616;28;20775;-79
2023/04/18 08:58:22;;;;;;;6.27;5.67;;;11.80;1.00;;;;;;5013783;28;20306;-80
2023/04/18 09:00:53;;;;;;;7.87;6.10;;;12.10;1.00;;;;;;5014766;28;20234;-79
2023/04/18 09:03:38;;;;;;;6.50;5.80;;;12.10;99.90;;;;;;5014069;28;20222;-82
2023/04/18 09:06:11;;;;;;;7.40;5.10;;;12.00;99.90;;;;;;5014515;28;20207;-78
2023/04/18 09:08:42;;;;;;;7.23;5.67;;;11.70;99.90;;;;;;5013903;28;20223;-79
2023/04/18 09:11:22;;;;;;;6.77;6.13;;;11.70;99.90;;;;;;5013337;28;20200;-86
2023/04/18 09:13:50;;;;;;;7.73;5.67;;;11.80;99.90;;;;;;5014135;28;20697;-80
2023/04/18 09:16:19;;;;;;;7.80;5.80;;;12.20;99.90;;;;;;5014171;28;20218;-80
2023/04/18 09:19:11;;;;;;;6.97;5.40;;;12.20;99.90;;;;;;5029895;28;20207;-77
2023/04/18 09:21:40;;;;;;;6.83;5.60;;;12.10;99.90;;;;;;5022427;28;20226;-80
2023/04/18 09:24:22;;;;;;;6.00;5.20;;;12.10;99.90;;;;;;5026740;28;20211;-79
2023/04/18 09:26:50;;;;;;;6.43;5.70;;;12.10;99.90;;;;;;5022139;28;20207;-80
2023/04/18 09:29:21;;;;;;;6.40;4.97;;;12.20;99.90;;;;;;5023927;28;20265;-80
2023/04/18 09:32:01;;;;;;;6.37;5.57;;;12.40;99.90;;;;;;5019507;28;20211;-79
2023/04/18 09:34:29;;;;;;;6.27;5.37;;;12.40;99.90;;;;;;5021228;28;20209;-79
2023/04/18 09:37:09;;;;;;;5.40;4.90;;;12.50;99.90;;;;;;5020946;28;20242;-79
2023/04/18 09:39:39;;;;;;;6.90;5.70;;;12.50;99.90;;;;;;5022861;28;20223;-79
2023/04/18 09:42:06;;;;;;;7.20;5.80;;;12.70;99.90;;;;;;5021405;28;20207;-79
2023/04/18 09:44:33;;;;;;;6.30;5.43;;;12.70;99.90;;;;;;5021102;28;20261;-79
2023/04/18 09:47:01;;;;;;;8.70;5.60;;;12.50;99.90;;;;;;5023232;28;20265;-78
2023/04/18 09:49:28;;;;;;;6.33;5.30;;;12.40;99.90;;;;;;5024241;28;20207;-80
2023/04/18 09:51:55;;;;;;;6.97;5.90;;;12.50;99.90;;;;;;5022143;28;20301;-78
2023/04/18 09:54:24;;;;;;;6.57;5.43;;;12.90;99.90;;;;;;5022699;28;20207;-78
2023/04/18 09:56:54;;;;;;;6.40;5.63;;;13.10;99.90;;;;;;5022885;28;20248;-79
2023/04/18 09:59:33;;;;;;;8.33;6.03;;;12.80;99.90;;;;;;5030851;28;20215;-78
2023/04/18 10:02:03;;;;;;;6.87;6.10;;;12.60;99.90;;;;;;5031748;28;20219;-80
2023/04/18 10:04:32;;;;;;;12.23;6.13;;;12.70;99.90;;;;;;5031361;28;20203;-79
2023/04/18 10:07:00;;;;;;;8.50;6.40;;;12.80;99.90;;;;;;5032197;28;20203;-81
2023/04/18 10:09:31;;;;;;;8.00;6.87;;;12.80;99.90;;;;;;5032173;28;20217;-78
2023/04/18 10:12:01;;;;;;;7.90;6.53;;;12.60;99.90;;;;;;5015718;28;20297;-79
2023/04/18 10:14:29;;;;;;;6.43;5.77;;;12.60;99.90;;;;;;5012940;28;20305;-78
2023/04/18 10:16:57;;;;;;;7.47;5.60;;;12.40;99.90;;;;;;5019098;28;20238;-78
2023/04/18 10:19:26;;;;;;;6.83;5.80;;;12.30;99.90;;;;;;5013861;28;20762;-80
2023/04/18 10:21:54;;;;;;;8.17;6.33;;;12.30;99.90;;;;;;5012990;28;20215;-79
2023/04/18 10:24:55;;;;;;;8.83;6.90;;;12.30;99.90;;;;;;5023818;28;20276;-82
2023/04/18 10:27:56;;;;;;;10.00;6.90;;;12.40;99.90;;;;;;4952817;29;20621;-79
2023/04/18 10:30:51;;;;;;;8.53;6.57;;;12.20;99.90;;;;;;4940973;29;20804;-80
2023/04/18 10:33:26;;;;;;;7.13;6.33;;;12.20;99.90;;;;;;5002761;28;20199;-80
2023/04/18 10:35:57;;;;;;;10.20;7.17;;;12.20;99.90;;;;;;5012618;28;20213;-79
2023/04/18 10:38:25;;;;;;;7.47;6.77;;;12.30;99.90;;;;;;5022359;28;20206;-79
2023/04/18 10:40:52;;;;;;;8.50;6.87;;;12.30;99.90;;;;;;5033090;28;20222;-80
2023/04/18 10:43:19;;;;;;;8.93;6.90;;;12.50;99.90;;;;;;5030970;28;20214;-78
2023/04/18 10:46:11;;;;;;;7.50;6.20;;;12.60;99.90;;;;;;5032722;28;20234;-79
2023/04/18 10:48:38;;;;;;;6.57;5.97;;;13.00;99.90;;;;;;5011931;28;20730;-78
2023/04/18 10:51:15;;;;;;;9.37;6.83;;;12.90;99.90;;;;;;5011906;28;20195;-77
2023/04/18 10:53:49;;;;;;;9.17;6.07;;;12.90;99.90;;;;;;5012995;28;20279;-78
2023/04/18 10:56:16;;;;;;;10.23;6.60;;;13.00;99.90;;;;;;5012171;28;20557;-78
2023/04/18 10:58:52;;;;;;;7.83;6.33;;;13.00;99.90;;;;;;5012865;28;20564;-80
2023/04/18 11:01:27;;;;;;;7.27;6.27;;;13.20;99.90;;;;;;5012754;28;20191;-79
2023/04/18 11:03:55;;;;;;;9.83;6.60;;;13.40;99.90;;;;;;5012090;28;20195;-77
2023/04/18 11:06:22;;;;;;;10.10;6.90;;;13.60;99.90;;;;;;5012804;28;20293;-79
2023/04/18 11:08:49;;;;;;;8.57;7.10;;;13.40;99.90;;;;;;5020571;28;20305;-79
2023/04/18 11:11:16;;;;;;;9.53;6.83;;;13.20;99.90;;;;;;5019579;28;20195;-82
2023/04/18 11:13:56;;;;;;;7.93;7.13;;;12.90;99.90;;;;;;5021944;28;20234;-80
2023/04/18 11:16:30;;;;;;;7.00;6.30;;;13.10;99.90;;;;;;5022329;28;20207;-80
2023/04/18 11:18:57;;;;;;;7.27;6.57;;;13.30;99.90;;;;;;5011609;28;20282;-80
2023/04/18 11:21:26;;;;;;;7.67;6.93;;;13.30;99.90;;;;;;5011974;28;20279;-80
2023/04/18 11:23:56;;;;;;;7.43;6.73;;;13.20;99.90;;;;;;5012089;28;20192;-80
2023/04/18 11:26:25;;;;;;;7.97;7.17;;;13.30;99.90;;;;;;5022946;28;20285;-79
2023/04/18 11:28:56;;;;;;;9.00;7.23;;;13.50;99.90;;;;;;5032002;28;20276;-78
2023/04/18 11:31:24;;;;;;;8.13;6.90;;;13.40;99.90;;;;;;5030676;28;20278;-81
2023/04/18 11:33:55;;;;;;;9.20;6.97;;;13.20;99.90;;;;;;5030960;28;20500;-79
2023/04/18 11:36:22;;;;;;;9.70;8.17;;;13.10;99.90;;;;;;5012811;28;20265;-78
2023/04/18 11:38:49;;;;;;;12.33;7.37;;;12.90;99.90;;;;;;5010308;28;20195;-79
2023/04/18 11:41:16;;;;;;;8.53;7.33;;;12.90;99.90;;;;;;5010984;28;20364;-81
2023/04/18 11:43:44;;;;;;;8.43;7.17;;;12.90;99.90;;;;;;5010781;28;20210;-79
2023/04/18 11:46:12;;;;;;;7.80;7.00;;;12.90;99.90;;;;;;5011316;28;20195;-80
2023/04/18 11:48:41;;;;;;;10.80;7.87;;;13.00;99.90;;;;;;5015058;28;20720;-80
2023/04/18 11:51:34;;;;;;;10.50;8.23;;;13.10;99.90;;;;;;5031882;28;20294;-82
2023/04/18 11:54:02;;;;;;;9.33;8.03;;;13.20;99.90;;;;;;5031210;28;20209;-80
2023/04/18 11:56:28;;;;;;;8.57;7.67;;;13.40;99.90;;;;;;5031313;28;20206;-81
2023/04/18 11:58:55;;;;;;;11.00;8.50;;;13.50;99.90;;;;;;5031764;28;20194;-80
2023/04/18 12:01:24;;;;;;;12.77;9.37;;;13.60;99.90;;;;;;5012532;28;20211;-81
2023/04/18 12:04:08;;;;;;;12.93;8.07;;;13.40;99.90;;;;;;5011765;28;20450;-81
2023/04/18 12:06:50;;;;;;;10.00;8.60;;;13.20;99.90;;;;;;5011433;28;20207;-80
2023/04/18 12:09:17;;;;;;;9.80;8.43;;;13.10;99.90;;;;;;5011819;28;20254;-79
2023/04/18 12:11:44;;;;;;;13.57;8.67;;;13.00;99.90;;;;;;5012329;28;20206;-82
2023/04/18 12:14:20;;;;;;;12.70;8.70;;;13.10;99.90;;;;;;5011489;28;20322;-80
2023/04/18 12:16:49;;;;;;;9.63;8.33;;;13.10;99.90;;;;;;5011647;28;20190;-81
2023/04/18 12:19:19;;;;;;;11.93;10.20;;;13.40;99.90;;;;;;5012517;28;20199;-87
2023/04/18 12:21:59;;;;;;;11.07;8.87;;;13.40;99.90;;;;;;5011713;28;20207;-80
2023/04/18 12:24:27;;;;;;;9.80;8.80;;;13.40;99.90;;;;;;5012245;28;20195;-80
2023/04/18 12:26:56;;;;;;;12.10;9.20;;;13.60;99.90;;;;;;5015151;28;20247;-80
2023/04/18 12:29:23;;;;;;;13.50;9.10;;;13.60;99.90;;;;;;5034616;28;20257;-81
2023/04/18 12:31:50;;;;;;;10.23;8.50;;;13.60;99.90;;;;;;5035208;28;20206;-80
2023/04/18 12:34:17;;;;;;;11.63;10.43;;;13.60;99.90;;;;;;5035047;28;20573;-79
2023/04/18 12:36:44;;;;;;;11.73;9.30;;;13.60;99.90;;;;;;5018154;28;20235;-80
2023/04/18 12:39:12;;;;;;;10.83;9.73;;;13.40;99.90;;;;;;5015596;28;20588;-81
2023/04/18 12:41:39;;;;;;;11.37;9.97;;;13.40;99.90;;;;;;5015191;28;20254;-79
2023/04/18 12:44:06;;;;;;;14.00;10.03;;;13.40;99.90;;;;;;5014550;28;20235;-78
2023/04/18 12:46:33;;;;;;;11.77;9.90;;;13.30;99.90;;;;;;5015215;28;20219;-80
2023/04/18 12:49:00;;;;;;;11.27;10.10;;;13.40;99.90;;;;;;5014379;28;20790;-79